sensor_id;sensor_type;location;lat;lon;timestamp;pressure;altitude;pressure_sealevel;temperature;humidity
69570;BME280;56781;42.292;23.146;2023-07-08T00:00:51;95865.53;;;18.43;100.00
69570;BME280;56781;42.292;23.146;2023-07-08T00:03:19;95854.63;;;18.27;100.00
69570;BME280;56781;42.292;23.146;2023-07-08T00:05:48;95850.06;;;18.31;100.00
69570;BME280;56781;42.292;23.146;2023-07-08T00:08:17;95844.56;;;18.15;100.00
69570;BME280;56781;42.292;23.146;2023-07-08T00:10:46;95857.78;;;18.04;100.00
69570;BME280;56781;42.292;23.146;2023-07-08T00:13:13;95868.19;;;18.02;100.00
69570;BME280;56781;42.292;23.146;2023-07-08T00:15:41;95854.84;;;17.85;100.00
69570;BME280;56781;42.292;23.146;2023-07-08T00:18:14;95853.28;;;17.84;100.00
69570;BME280;56781;42.292;23.146;2023-07-08T00:20:48;95857.31;;;17.90;100.00
69570;BME280;56781;42.292;23.146;2023-07-08T00:23:16;95846.78;;;17.64;100.00
69570;BME280;56781;42.292;23.146;2023-07-08T00:25:43;95859.53;;;17.63;100.00
69570;BME280;56781;42.292;23.146;2023-07-08T00:28:17;95849.84;;;17.62;100.00
69570;BME280;56781;42.292;23.146;2023-07-08T00:30:47;95860.41;;;17.55;100.00
69570;BME280;56781;42.292;23.146;2023-07-08T00:33:14;95848.34;;;17.53;100.00
69570;BME280;56781;42.292;23.146;2023-07-08T00:35:44;95874.22;;;17.62;100.00
69570;BME280;56781;42.292;23.146;2023-07-08T00:38:19;95851.50;;;17.55;100.00
69570;BME280;56781;42.292;23.146;2023-07-08T00:43:54;95848.47;;;17.56;100.00
69570;BME280;56781;42.292;23.146;2023-07-08T00:51:51;95848.28;;;17.28;100.00
69570;BME280;56781;42.292;23.146;2023-07-08T00:54:19;95841.63;;;17.25;100.00
69570;BME280;56781;42.292;23.146;2023-07-08T00:59:28;95852.66;;;17.08;100.00
69570;BME280;56781;42.292;23.146;2023-07-08T01:01:58;95863.50;;;17.20;100.00
69570;BME280;56781;42.292;23.146;2023-07-08T01:04:33;95851.00;;;17.16;100.00
69570;BME280;56781;42.292;23.146;2023-07-08T01:07:02;95848.59;;;17.14;100.00
69570;BME280;56781;42.292;23.146;2023-07-08T01:09:37;95834.59;;;17.12;100.00
69570;BME280;56781;42.292;23.146;2023-07-08T01:12:13;95838.81;;;17.22;100.00
69570;BME280;56781;42.292;23.146;2023-07-08T01:14:42;95828.91;;;17.26;100.00
69570;BME280;56781;42.292;23.146;2023-07-08T01:17:11;95835.22;;;17.30;100.00
69570;BME280;56781;42.292;23.146;2023-07-08T01:19:42;95841.44;;;17.31;100.00
69570;BME280;56781;42.292;23.146;2023-07-08T01:22:10;95848.19;;;17.24;100.00
69570;BME280;56781;42.292;23.146;2023-07-08T01:24:41;95844.13;;;17.31;100.00
69570;BME280;56781;42.292;23.146;2023-07-08T01:27:12;95843.19;;;17.14;100.00
69570;BME280;56781;42.292;23.146;2023-07-08T01:29:40;95849.53;;;17.18;100.00
69570;BME280;56781;42.292;23.146;2023-07-08T01:32:11;95840.84;;;17.13;100.00
69570;BME280;56781;42.292;23.146;2023-07-08T01:34:40;95839.00;;;17.04;100.00
69570;BME280;56781;42.292;23.146;2023-07-08T01:37:10;95857.19;;;17.16;100.00
69570;BME280;56781;42.292;23.146;2023-07-08T01:39:39;95830.53;;;16.94;100.00
69570;BME280;56781;42.292;23.146;2023-07-08T01:42:06;95836.94;;;17.01;100.00
69570;BME280;56781;42.292;23.146;2023-07-08T01:44:35;95839.94;;;16.88;100.00
69570;BME280;56781;42.292;23.146;2023-07-08T01:47:16;95841.06;;;16.87;100.00
69570;BME280;56781;42.292;23.146;2023-07-08T01:49:47;95857.50;;;16.81;100.00
69570;BME280;56781;42.292;23.146;2023-07-08T01:52:17;95840.72;;;16.88;100.00
69570;BME280;56781;42.292;23.146;2023-07-08T01:54:44;95834.28;;;16.80;100.00
69570;BME280;56781;42.292;23.146;2023-07-08T01:57:11;95833.47;;;16.80;100.00
69570;BME280;56781;42.292;23.146;2023-07-08T01:59:38;95862.50;;;16.92;100.00
69570;BME280;56781;42.292;23.146;2023-07-08T02:02:06;95842.72;;;16.79;100.00
69570;BME280;56781;42.292;23.146;2023-07-08T02:04:33;95865.22;;;16.92;100.00
69570;BME280;56781;42.292;23.146;2023-07-08T02:07:00;95865.69;;;16.94;100.00
69570;BME280;56781;42.292;23.146;2023-07-08T02:09:27;95857.47;;;17.02;100.00
69570;BME280;56781;42.292;23.146;2023-07-08T02:11:55;95840.19;;;16.95;100.00
69570;BME280;56781;42.292;23.146;2023-07-08T02:14:22;95858.44;;;17.19;100.00
69570;BME280;56781;42.292;23.146;2023-07-08T02:16:49;95844.31;;;17.13;100.00
69570;BME280;56781;42.292;23.146;2023-07-08T02:19:17;95851.00;;;17.16;100.00
69570;BME280;56781;42.292;23.146;2023-07-08T02:21:44;95856.25;;;17.12;100.00
69570;BME280;56781;42.292;23.146;2023-07-08T02:24:11;95841.91;;;16.99;100.00
69570;BME280;56781;42.292;23.146;2023-07-08T02:26:38;95835.84;;;17.02;100.00
69570;BME280;56781;42.292;23.146;2023-07-08T02:29:05;95831.00;;;17.08;100.00
69570;BME280;56781;42.292;23.146;2023-07-08T02:31:32;95844.13;;;17.18;100.00
69570;BME280;56781;42.292;23.146;2023-07-08T02:33:59;95838.19;;;17.04;100.00
69570;BME280;56781;42.292;23.146;2023-07-08T02:36:29;95841.44;;;16.97;100.00
69570;BME280;56781;42.292;23.146;2023-07-08T02:38:56;95846.66;;;17.02;100.00
69570;BME280;56781;42.292;23.146;2023-07-08T02:41:23;95842.94;;;17.07;100.00
69570;BME280;56781;42.292;23.146;2023-07-08T02:43:50;95832.56;;;17.09;100.00
69570;BME280;56781;42.292;23.146;2023-07-08T02:46:17;95848.59;;;17.14;100.00
69570;BME280;56781;42.292;23.146;2023-07-08T02:48:44;95842.94;;;17.07;100.00
69570;BME280;56781;42.292;23.146;2023-07-08T02:51:12;95848.56;;;17.02;100.00
69570;BME280;56781;42.292;23.146;2023-07-08T02:53:39;95860.41;;;17.10;100.00
69570;BME280;56781;42.292;23.146;2023-07-08T02:56:06;95862.78;;;17.11;100.00
69570;BME280;56781;42.292;23.146;2023-07-08T02:58:33;95858.75;;;17.17;100.00
69570;BME280;56781;42.292;23.146;2023-07-08T03:01:01;95856.81;;;17.05;100.00
69570;BME280;56781;42.292;23.146;2023-07-08T03:03:29;95848.81;;;17.09;100.00
69570;BME280;56781;42.292;23.146;2023-07-08T03:06:03;95855.59;;;17.15;100.00
69570;BME280;56781;42.292;23.146;2023-07-08T03:08:32;95865.31;;;17.28;100.00
69570;BME280;56781;42.292;23.146;2023-07-08T03:11:01;95861.50;;;17.30;100.00
69570;BME280;56781;42.292;23.146;2023-07-08T03:13:30;95866.25;;;17.33;100.00
69570;BME280;56781;42.292;23.146;2023-07-08T03:15:58;95869.41;;;17.35;100.00
69570;BME280;56781;42.292;23.146;2023-07-08T03:18:29;95858.03;;;17.41;100.00
69570;BME280;56781;42.292;23.146;2023-07-08T03:20:57;95841.78;;;17.29;100.00
69570;BME280;56781;42.292;23.146;2023-07-08T03:23:25;95841.88;;;17.33;100.00
69570;BME280;56781;42.292;23.146;2023-07-08T03:25:52;95840.53;;;17.39;100.00
69570;BME280;56781;42.292;23.146;2023-07-08T03:28:20;95821.34;;;17.32;100.00
69570;BME280;56781;42.292;23.146;2023-07-08T03:30:51;95830.59;;;17.31;100.00
69570;BME280;56781;42.292;23.146;2023-07-08T03:33:19;95834.44;;;17.30;100.00
69570;BME280;56781;42.292;23.146;2023-07-08T03:35:46;95834.78;;;17.28;100.00
69570;BME280;56781;42.292;23.146;2023-07-08T03:38:13;95830.97;;;17.29;100.00
69570;BME280;56781;42.292;23.146;2023-07-08T03:40:40;95823.72;;;17.33;100.00
69570;BME280;56781;42.292;23.146;2023-07-08T03:43:07;95845.63;;;17.40;100.00
69570;BME280;56781;42.292;23.146;2023-07-08T03:45:34;95835.22;;;17.30;100.00
69570;BME280;56781;42.292;23.146;2023-07-08T03:48:01;95838.25;;;17.28;100.00
69570;BME280;56781;42.292;23.146;2023-07-08T03:50:29;95843.25;;;17.39;100.00
69570;BME280;56781;42.292;23.146;2023-07-08T03:52:56;95833.31;;;17.31;100.00
69570;BME280;56781;42.292;23.146;2023-07-08T03:55:23;95830.50;;;17.39;100.00
69570;BME280;56781;42.292;23.146;2023-07-08T03:57:50;95829.28;;;17.49;100.00
69570;BME280;56781;42.292;23.146;2023-07-08T04:00:18;95820.03;;;17.50;100.00
69570;BME280;56781;42.292;23.146;2023-07-08T04:02:45;95797.47;;;17.34;100.00
69570;BME280;56781;42.292;23.146;2023-07-08T04:05:15;95823.19;;;17.52;100.00
69570;BME280;56781;42.292;23.146;2023-07-08T04:07:42;95818.25;;;17.54;100.00
69570;BME280;56781;42.292;23.146;2023-07-08T04:10:10;95820.38;;;17.48;100.00
69570;BME280;56781;42.292;23.146;2023-07-08T04:12:37;95846.25;;;17.70;100.00
69570;BME280;56781;42.292;23.146;2023-07-08T04:15:07;95831.56;;;17.71;100.00
69570;BME280;56781;42.292;23.146;2023-07-08T04:17:44;95834.31;;;17.84;100.00
69570;BME280;56781;42.292;23.146;2023-07-08T04:20:17;95844.69;;;18.06;100.00
69570;BME280;56781;42.292;23.146;2023-07-08T04:22:45;95838.13;;;18.20;100.00
69570;BME280;56781;42.292;23.146;2023-07-08T04:25:13;95837.44;;;18.23;100.00
69570;BME280;56781;42.292;23.146;2023-07-08T04:27:41;95842.19;;;18.26;100.00
69570;BME280;56781;42.292;23.146;2023-07-08T04:30:21;95846.81;;;18.25;100.00
69570;BME280;56781;42.292;23.146;2023-07-08T04:32:50;95848.31;;;18.10;100.00
69570;BME280;56781;42.292;23.146;2023-07-08T04:35:18;95847.84;;;18.08;100.00
69570;BME280;56781;42.292;23.146;2023-07-08T04:37:45;95857.00;;;18.04;100.00
69570;BME280;56781;42.292;23.146;2023-07-08T04:40:17;95854.41;;;17.95;100.00
69570;BME280;56781;42.292;23.146;2023-07-08T04:42:46;95868.16;;;17.90;100.00
69570;BME280;56781;42.292;23.146;2023-07-08T04:45:16;95870.66;;;17.95;100.00
69570;BME280;56781;42.292;23.146;2023-07-08T04:47:44;95857.09;;;17.83;100.00
69570;BME280;56781;42.292;23.146;2023-07-08T04:50:13;95866.69;;;17.92;100.00
69570;BME280;56781;42.292;23.146;2023-07-08T04:52:41;95855.50;;;17.94;100.00
69570;BME280;56781;42.292;23.146;2023-07-08T04:55:08;95855.19;;;17.96;100.00
69570;BME280;56781;42.292;23.146;2023-07-08T04:57:36;95868.59;;;18.04;100.00
69570;BME280;56781;42.292;23.146;2023-07-08T05:00:05;95868.75;;;18.08;100.00
69570;BME280;56781;42.292;23.146;2023-07-08T05:02:35;95868.84;;;18.11;100.00
69570;BME280;56781;42.292;23.146;2023-07-08T05:05:02;95881.91;;;18.34;100.00
69570;BME280;56781;42.292;23.146;2023-07-08T05:07:29;95877.50;;;18.42;100.00
69570;BME280;56781;42.292;23.146;2023-07-08T05:09:57;95880.78;;;18.47;100.00
69570;BME280;56781;42.292;23.146;2023-07-08T05:12:26;95882.47;;;18.52;100.00
69570;BME280;56781;42.292;23.146;2023-07-08T05:14:53;95892.03;;;18.61;100.00
69570;BME280;56781;42.292;23.146;2023-07-08T05:17:20;95894.06;;;18.65;100.00
69570;BME280;56781;42.292;23.146;2023-07-08T05:19:47;95894.50;;;18.67;100.00
69570;BME280;56781;42.292;23.146;2023-07-08T05:22:17;95910.44;;;18.80;100.00
69570;BME280;56781;42.292;23.146;2023-07-08T05:24:45;95897.13;;;18.75;100.00
69570;BME280;56781;42.292;23.146;2023-07-08T05:27:13;95906.84;;;18.76;100.00
69570;BME280;56781;42.292;23.146;2023-07-08T05:29:41;95899.59;;;18.80;100.00
69570;BME280;56781;42.292;23.146;2023-07-08T05:32:09;95907.41;;;18.82;100.00
69570;BME280;56781;42.292;23.146;2023-07-08T05:34:36;95894.16;;;18.80;100.00
69570;BME280;56781;42.292;23.146;2023-07-08T05:37:04;95926.31;;;19.07;100.00
69570;BME280;56781;42.292;23.146;2023-07-08T05:39:31;95904.16;;;19.04;100.00
69570;BME280;56781;42.292;23.146;2023-07-08T05:41:58;95911.38;;;19.13;100.00
69570;BME280;56781;42.292;23.146;2023-07-08T05:44:26;95925.91;;;19.33;100.00
69570;BME280;56781;42.292;23.146;2023-07-08T05:46:53;95918.03;;;19.43;100.00
69570;BME280;56781;42.292;23.146;2023-07-08T05:49:20;95913.69;;;19.55;100.00
69570;BME280;56781;42.292;23.146;2023-07-08T05:51:47;95919.25;;;19.74;100.00
69570;BME280;56781;42.292;23.146;2023-07-08T05:54:14;95917.84;;;19.80;100.00
69570;BME280;56781;42.292;23.146;2023-07-08T05:56:41;95938.56;;;20.01;100.00
69570;BME280;56781;42.292;23.146;2023-07-08T05:59:08;95925.56;;;19.94;99.19
69570;BME280;56781;42.292;23.146;2023-07-08T06:01:35;95937.94;;;20.07;99.20
69570;BME280;56781;42.292;23.146;2023-07-08T06:04:02;95932.13;;;20.25;97.34
69570;BME280;56781;42.292;23.146;2023-07-08T06:06:30;95936.09;;;20.27;93.97
69570;BME280;56781;42.292;23.146;2023-07-08T06:08:57;95927.41;;;20.37;96.42
69570;BME280;56781;42.292;23.146;2023-07-08T06:11:24;95919.84;;;20.47;95.12
69570;BME280;56781;42.292;23.146;2023-07-08T06:13:51;95919.69;;;20.55;93.00
69570;BME280;56781;42.292;23.146;2023-07-08T06:16:18;95938.88;;;20.98;94.06
69570;BME280;56781;42.292;23.146;2023-07-08T06:19:04;95928.16;;;21.63;87.86
69570;BME280;56781;42.292;23.146;2023-07-08T06:21:32;95925.84;;;21.65;86.36
69570;BME280;56781;42.292;23.146;2023-07-08T06:23:59;95939.59;;;21.73;91.06
69570;BME280;56781;42.292;23.146;2023-07-08T06:26:26;95935.97;;;22.11;85.08
69570;BME280;56781;42.292;23.146;2023-07-08T06:28:54;95942.34;;;22.68;83.80
69570;BME280;56781;42.292;23.146;2023-07-08T06:31:21;95933.75;;;22.40;85.87
69570;BME280;56781;42.292;23.146;2023-07-08T06:33:48;95930.94;;;21.90;82.91
69570;BME280;56781;42.292;23.146;2023-07-08T06:36:15;95929.56;;;21.18;88.02
69570;BME280;56781;42.292;23.146;2023-07-08T06:38:42;95946.53;;;20.92;88.52
69570;BME280;56781;42.292;23.146;2023-07-08T06:41:09;95941.59;;;20.98;88.81
69570;BME280;56781;42.292;23.146;2023-07-08T06:43:36;95942.50;;;20.86;89.96
69570;BME280;56781;42.292;23.146;2023-07-08T06:46:03;95925.81;;;20.68;87.76
69570;BME280;56781;42.292;23.146;2023-07-08T06:48:30;95920.78;;;20.70;91.20
69570;BME280;56781;42.292;23.146;2023-07-08T06:50:57;95930.25;;;20.76;93.23
69570;BME280;56781;42.292;23.146;2023-07-08T06:53:25;95929.09;;;20.77;93.11
69570;BME280;56781;42.292;23.146;2023-07-08T06:55:52;95928.09;;;20.66;88.94
69570;BME280;56781;42.292;23.146;2023-07-08T06:58:19;95933.97;;;20.68;91.40
69570;BME280;56781;42.292;23.146;2023-07-08T07:00:46;95927.81;;;20.71;89.27
69570;BME280;56781;42.292;23.146;2023-07-08T07:03:13;95932.22;;;20.95;88.33
69570;BME280;56781;42.292;23.146;2023-07-08T07:05:40;95917.41;;;20.93;88.21
69570;BME280;56781;42.292;23.146;2023-07-08T07:08:08;95930.78;;;21.01;90.17
69570;BME280;56781;42.292;23.146;2023-07-08T07:10:35;95935.47;;;21.01;88.22
69570;BME280;56781;42.292;23.146;2023-07-08T07:13:03;95932.59;;;21.13;88.91
69570;BME280;56781;42.292;23.146;2023-07-08T07:15:30;95941.03;;;21.08;88.58
69570;BME280;56781;42.292;23.146;2023-07-08T07:17:59;95925.91;;;21.30;87.11
69570;BME280;56781;42.292;23.146;2023-07-08T07:20:26;95955.72;;;21.81;87.09
69570;BME280;56781;42.292;23.146;2023-07-08T07:22:53;95936.78;;;21.88;86.45
69570;BME280;56781;42.292;23.146;2023-07-08T07:25:21;95938.34;;;21.89;83.92
69570;BME280;56781;42.292;23.146;2023-07-08T07:27:48;95947.97;;;22.06;83.48
69570;BME280;56781;42.292;23.146;2023-07-08T07:30:15;95931.69;;;22.10;83.85
69570;BME280;56781;42.292;23.146;2023-07-08T07:32:42;95938.56;;;22.04;84.13
69570;BME280;56781;42.292;23.146;2023-07-08T07:35:13;95946.50;;;21.89;83.34
69570;BME280;56781;42.292;23.146;2023-07-08T07:37:42;95942.31;;;21.73;83.24
69570;BME280;56781;42.292;23.146;2023-07-08T07:40:11;95938.75;;;21.49;83.54
69570;BME280;56781;42.292;23.146;2023-07-08T07:42:40;95933.47;;;21.56;83.31
69570;BME280;56781;42.292;23.146;2023-07-08T07:45:08;95937.75;;;21.57;83.26
69570;BME280;56781;42.292;23.146;2023-07-08T07:47:35;95946.31;;;21.56;82.63
69570;BME280;56781;42.292;23.146;2023-07-08T07:50:05;95949.44;;;21.58;82.82
69570;BME280;56781;42.292;23.146;2023-07-08T07:52:33;95945.66;;;21.43;84.58
69570;BME280;56781;42.292;23.146;2023-07-08T07:55:00;95967.59;;;21.50;85.74
69570;BME280;56781;42.292;23.146;2023-07-08T07:57:27;95964.22;;;21.57;86.32
69570;BME280;56781;42.292;23.146;2023-07-08T07:59:54;95952.31;;;21.65;83.55
69570;BME280;56781;42.292;23.146;2023-07-08T08:02:21;95955.66;;;21.78;83.41
69570;BME280;56781;42.292;23.146;2023-07-08T08:04:48;95967.97;;;21.91;84.95
69570;BME280;56781;42.292;23.146;2023-07-08T08:07:15;95974.06;;;21.84;83.99
69570;BME280;56781;42.292;23.146;2023-07-08T08:09:42;95964.13;;;21.73;83.17
69570;BME280;56781;42.292;23.146;2023-07-08T08:12:11;95966.31;;;21.86;83.25
69570;BME280;56781;42.292;23.146;2023-07-08T08:14:38;95965.16;;;21.87;81.64
69570;BME280;56781;42.292;23.146;2023-07-08T08:17:06;95973.53;;;21.98;80.22
69570;BME280;56781;42.292;23.146;2023-07-08T08:19:33;95970.78;;;22.18;80.63
69570;BME280;56781;42.292;23.146;2023-07-08T08:22:00;95934.63;;;22.21;80.69
69570;BME280;56781;42.292;23.146;2023-07-08T08:24:27;95965.06;;;23.29;77.22
69570;BME280;56781;42.292;23.146;2023-07-08T08:26:54;95962.91;;;24.17;74.97
69570;BME280;56781;42.292;23.146;2023-07-08T08:29:21;95955.91;;;24.19;77.35
69570;BME280;56781;42.292;23.146;2023-07-08T08:31:48;95946.03;;;23.70;74.48
69570;BME280;56781;42.292;23.146;2023-07-08T08:34:17;95949.50;;;23.33;73.87
69570;BME280;56781;42.292;23.146;2023-07-08T08:36:44;95940.72;;;22.90;74.88
69570;BME280;56781;42.292;23.146;2023-07-08T08:39:11;95940.63;;;22.83;76.24
69570;BME280;56781;42.292;23.146;2023-07-08T08:41:40;95924.00;;;22.65;75.71
69570;BME280;56781;42.292;23.146;2023-07-08T08:44:24;95947.47;;;22.70;76.10
69570;BME280;56781;42.292;23.146;2023-07-08T08:46:58;95928.94;;;22.56;79.14
69570;BME280;56781;42.292;23.146;2023-07-08T08:49:37;95922.47;;;22.41;85.67
69570;BME280;56781;42.292;23.146;2023-07-08T08:52:07;95919.38;;;22.43;80.10
69570;BME280;56781;42.292;23.146;2023-07-08T08:54:41;95921.03;;;23.04;80.97
69570;BME280;56781;42.292;23.146;2023-07-08T08:57:14;95930.06;;;23.42;76.51
69570;BME280;56781;42.292;23.146;2023-07-08T08:59:54;95905.13;;;23.43;74.42
69570;BME280;56781;42.292;23.146;2023-07-08T09:03:07;95908.34;;;23.53;73.61
69570;BME280;56781;42.292;23.146;2023-07-08T09:05:36;95903.38;;;23.28;73.09
69570;BME280;56781;42.292;23.146;2023-07-08T09:13:37;95884.13;;;22.87;78.45
69570;BME280;56781;42.292;23.146;2023-07-08T09:18:47;95913.94;;;24.49;69.56
69570;BME280;56781;42.292;23.146;2023-07-08T09:21:21;95905.28;;;25.09;68.61
69570;BME280;56781;42.292;23.146;2023-07-08T09:23:53;95890.88;;;25.19;67.90
69570;BME280;56781;42.292;23.146;2023-07-08T09:26:25;95893.78;;;24.79;66.82
69570;BME280;56781;42.292;23.146;2023-07-08T09:28:55;95903.06;;;24.60;68.10
69570;BME280;56781;42.292;23.146;2023-07-08T09:31:31;95916.28;;;24.47;73.31
69570;BME280;56781;42.292;23.146;2023-07-08T09:36:39;95889.28;;;25.15;68.21
69570;BME280;56781;42.292;23.146;2023-07-08T09:39:14;95894.09;;;25.50;67.59
69570;BME280;56781;42.292;23.146;2023-07-08T09:41:44;95869.41;;;25.36;64.68
69570;BME280;56781;42.292;23.146;2023-07-08T09:44:16;95889.97;;;24.97;71.62
69570;BME280;56781;42.292;23.146;2023-07-08T09:46:44;95866.34;;;25.62;67.31
69570;BME280;56781;42.292;23.146;2023-07-08T09:49:20;95871.00;;;25.51;64.33
69570;BME280;56781;42.292;23.146;2023-07-08T09:51:50;95884.66;;;25.30;68.52
69570;BME280;56781;42.292;23.146;2023-07-08T09:54:23;95886.59;;;25.26;68.47
69570;BME280;56781;42.292;23.146;2023-07-08T09:57:04;95888.59;;;25.39;66.15
69570;BME280;56781;42.292;23.146;2023-07-08T09:59:40;95870.19;;;25.40;68.35
69570;BME280;56781;42.292;23.146;2023-07-08T10:02:27;95890.22;;;25.58;67.92
69570;BME280;56781;42.292;23.146;2023-07-08T10:05:00;95865.56;;;25.69;61.97
69570;BME280;56781;42.292;23.146;2023-07-08T10:07:31;95883.25;;;26.00;63.96
69570;BME280;56781;42.292;23.146;2023-07-08T10:10:04;95880.47;;;26.33;67.12
69570;BME280;56781;42.292;23.146;2023-07-08T10:12:34;95886.38;;;25.92;64.14
69570;BME280;56781;42.292;23.146;2023-07-08T10:15:23;95864.81;;;26.26;63.20
69570;BME280;56781;42.292;23.146;2023-07-08T10:17:53;95865.63;;;26.08;60.58
69570;BME280;56781;42.292;23.146;2023-07-08T10:20:22;95872.69;;;26.17;59.62
69570;BME280;56781;42.292;23.146;2023-07-08T10:23:22;95859.28;;;26.65;63.87
69570;BME280;56781;42.292;23.146;2023-07-08T10:31:35;95872.59;;;25.81;67.78
69570;BME280;56781;42.292;23.146;2023-07-08T10:36:56;95843.59;;;26.62;63.08
69570;BME280;56781;42.292;23.146;2023-07-08T10:51:27;95838.13;;;26.59;56.90
69570;BME280;56781;42.292;23.146;2023-07-08T10:57:42;95846.41;;;26.08;59.34
69570;BME280;56781;42.292;23.146;2023-07-08T11:10:52;95827.91;;;25.41;63.47
69570;BME280;56781;42.292;23.146;2023-07-08T11:13:45;95830.72;;;26.02;64.74
69570;BME280;56781;42.292;23.146;2023-07-08T11:16:56;95831.50;;;26.20;57.26
69570;BME280;56781;42.292;23.146;2023-07-08T11:19:35;95822.84;;;26.29;58.91
69570;BME280;56781;42.292;23.146;2023-07-08T11:22:09;95809.56;;;26.17;62.44
69570;BME280;56781;42.292;23.146;2023-07-08T11:24:49;95795.47;;;25.93;59.61
69570;BME280;56781;42.292;23.146;2023-07-08T11:27:35;95805.59;;;26.32;59.83
69570;BME280;56781;42.292;23.146;2023-07-08T11:30:14;95818.53;;;25.74;57.91
69570;BME280;56781;42.292;23.146;2023-07-08T11:32:45;95813.06;;;25.78;59.88
69570;BME280;56781;42.292;23.146;2023-07-08T11:35:25;95806.00;;;25.77;59.75
69570;BME280;56781;42.292;23.146;2023-07-08T11:37:55;95810.75;;;25.98;59.02
69570;BME280;56781;42.292;23.146;2023-07-08T11:40:23;95803.28;;;26.13;57.49
69570;BME280;56781;42.292;23.146;2023-07-08T11:42:52;95808.34;;;26.28;57.68
69570;BME280;56781;42.292;23.146;2023-07-08T11:45:31;95791.09;;;26.28;55.39
69570;BME280;56781;42.292;23.146;2023-07-08T11:48:12;95796.94;;;26.55;55.43
69570;BME280;56781;42.292;23.146;2023-07-08T11:50:42;95784.84;;;26.20;52.14
69570;BME280;56781;42.292;23.146;2023-07-08T11:53:31;95803.97;;;26.60;57.65
69570;BME280;56781;42.292;23.146;2023-07-08T11:56:18;95807.94;;;26.30;54.87
69570;BME280;56781;42.292;23.146;2023-07-08T12:04:30;95783.97;;;26.63;49.29
69570;BME280;56781;42.292;23.146;2023-07-08T12:09:38;95787.47;;;26.67;48.32
69570;BME280;56781;42.292;23.146;2023-07-08T12:12:11;95787.13;;;26.43;44.36
69570;BME280;56781;42.292;23.146;2023-07-08T12:14:41;95789.00;;;26.82;45.83
69570;BME280;56781;42.292;23.146;2023-07-08T12:17:12;95793.94;;;27.16;51.85
69570;BME280;56781;42.292;23.146;2023-07-08T12:19:42;95798.25;;;27.13;52.83
69570;BME280;56781;42.292;23.146;2023-07-08T12:22:11;95787.13;;;26.61;49.95
69570;BME280;56781;42.292;23.146;2023-07-08T12:24:40;95790.63;;;26.62;53.66
69570;BME280;56781;42.292;23.146;2023-07-08T12:27:10;95778.78;;;26.90;48.58
69570;BME280;56781;42.292;23.146;2023-07-08T12:29:39;95785.75;;;27.02;49.18
69570;BME280;56781;42.292;23.146;2023-07-08T12:32:11;95778.38;;;26.88;49.34
69570;BME280;56781;42.292;23.146;2023-07-08T12:34:39;95774.88;;;26.80;48.01
69570;BME280;56781;42.292;23.146;2023-07-08T12:37:11;95770.28;;;26.34;49.74
69570;BME280;56781;42.292;23.146;2023-07-08T12:39:39;95789.16;;;26.18;54.02
69570;BME280;56781;42.292;23.146;2023-07-08T12:42:11;95773.38;;;26.50;52.65
69570;BME280;56781;42.292;23.146;2023-07-08T12:44:39;95784.94;;;27.08;53.18
69570;BME280;56781;42.292;23.146;2023-07-08T12:47:09;95777.88;;;27.07;54.97
69570;BME280;56781;42.292;23.146;2023-07-08T12:49:37;95789.63;;;27.15;52.07
69570;BME280;56781;42.292;23.146;2023-07-08T12:52:04;95784.84;;;27.33;53.16
69570;BME280;56781;42.292;23.146;2023-07-08T12:54:31;95771.69;;;26.89;49.35
69570;BME280;56781;42.292;23.146;2023-07-08T12:57:00;95782.56;;;27.10;49.74
69570;BME280;56781;42.292;23.146;2023-07-08T12:59:29;95774.75;;;27.05;48.31
69570;BME280;56781;42.292;23.146;2023-07-08T13:01:56;95762.34;;;26.79;47.81
69570;BME280;56781;42.292;23.146;2023-07-08T13:04:24;95764.25;;;26.86;50.60
69570;BME280;56781;42.292;23.146;2023-07-08T13:06:51;95779.41;;;27.15;49.90
69570;BME280;56781;42.292;23.146;2023-07-08T13:11:54;95769.88;;;27.42;51.17
69570;BME280;56781;42.292;23.146;2023-07-08T13:14:24;95768.97;;;27.52;51.58
69570;BME280;56781;42.292;23.146;2023-07-08T13:16:51;95748.47;;;27.01;46.53
69570;BME280;56781;42.292;23.146;2023-07-08T13:19:18;95754.22;;;26.29;49.63
69570;BME280;56781;42.292;23.146;2023-07-08T13:21:49;95758.47;;;26.66;47.81
69570;BME280;56781;42.292;23.146;2023-07-08T13:24:17;95755.63;;;26.84;45.07
69570;BME280;56781;42.292;23.146;2023-07-08T13:26:47;95758.38;;;26.87;48.43
69570;BME280;56781;42.292;23.146;2023-07-08T13:29:17;95773.91;;;27.15;50.23
69570;BME280;56781;42.292;23.146;2023-07-08T13:31:48;95755.63;;;26.87;45.21
69570;BME280;56781;42.292;23.146;2023-07-08T13:34:18;95762.63;;;26.99;50.11
69570;BME280;56781;42.292;23.146;2023-07-08T13:36:49;95767.81;;;26.75;48.17
69570;BME280;56781;42.292;23.146;2023-07-08T13:39:23;95756.03;;;26.82;47.60
69570;BME280;56781;42.292;23.146;2023-07-08T13:41:52;95751.00;;;26.66;47.97
69570;BME280;56781;42.292;23.146;2023-07-08T13:44:19;95772.19;;;26.66;49.08
69570;BME280;56781;42.292;23.146;2023-07-08T13:46:53;95747.88;;;26.64;47.10
69570;BME280;56781;42.292;23.146;2023-07-08T13:49:38;95758.38;;;26.80;47.04
69570;BME280;56781;42.292;23.146;2023-07-08T13:54:44;95752.88;;;26.87;49.63
69570;BME280;56781;42.292;23.146;2023-07-08T13:57:18;95744.50;;;27.09;50.88
69570;BME280;56781;42.292;23.146;2023-07-08T13:59:45;95745.34;;;26.99;46.07
69570;BME280;56781;42.292;23.146;2023-07-08T14:02:20;95734.81;;;26.86;47.71
69570;BME280;56781;42.292;23.146;2023-07-08T14:04:48;95731.63;;;26.99;51.88
69570;BME280;56781;42.292;23.146;2023-07-08T14:07:26;95734.38;;;26.99;47.75
69570;BME280;56781;42.292;23.146;2023-07-08T14:09:54;95742.72;;;26.77;46.68